sensor_id;sensor_type;location;lat;lon;timestamp;P1;durP1;ratioP1;P2;durP2;ratioP2
28577;SDS011;15769;52.248;15.818;2022-11-12T00:04:05;10.02;;;6.32;;
28577;SDS011;15769;52.248;15.818;2022-11-12T00:09:32;7.95;;;4.88;;
28577;SDS011;15769;52.248;15.818;2022-11-12T00:14:53;7.63;;;5.32;;
28577;SDS011;15769;52.248;15.818;2022-11-12T00:20:14;9.07;;;5.15;;
28577;SDS011;15769;52.248;15.818;2022-11-12T00:25:35;9.13;;;4.93;;
28577;SDS011;15769;52.248;15.818;2022-11-12T00:30:57;10.10;;;4.65;;
28577;SDS011;15769;52.248;15.818;2022-11-12T00:36:18;9.15;;;4.75;;
28577;SDS011;15769;52.248;15.818;2022-11-12T00:41:39;6.38;;;4.53;;
28577;SDS011;15769;52.248;15.818;2022-11-12T00:47:01;6.35;;;4.32;;
28577;SDS011;15769;52.248;15.818;2022-11-12T00:52:22;10.07;;;5.18;;
28577;SDS011;15769;52.248;15.818;2022-11-12T00:57:43;9.98;;;4.72;;
28577;SDS011;15769;52.248;15.818;2022-11-12T01:03:05;9.93;;;5.25;;
28577;SDS011;15769;52.248;15.818;2022-11-12T01:08:27;10.48;;;5.25;;
28577;SDS011;15769;52.248;15.818;2022-11-12T01:13:59;10.23;;;4.72;;
28577;SDS011;15769;52.248;15.818;2022-11-12T01:19:21;11.15;;;5.10;;
28577;SDS011;15769;52.248;15.818;2022-11-12T01:24:43;10.48;;;5.00;;
28577;SDS011;15769;52.248;15.818;2022-11-12T01:30:05;11.02;;;5.25;;
28577;SDS011;15769;52.248;15.818;2022-11-12T01:35:27;7.35;;;4.90;;
28577;SDS011;15769;52.248;15.818;2022-11-12T01:40:47;8.32;;;4.80;;
28577;SDS011;15769;52.248;15.818;2022-11-12T01:46:17;10.45;;;5.43;;
28577;SDS011;15769;52.248;15.818;2022-11-12T01:51:45;9.82;;;4.50;;
28577;SDS011;15769;52.248;15.818;2022-11-12T01:57:08;8.45;;;4.15;;
28577;SDS011;15769;52.248;15.818;2022-11-12T02:02:33;8.98;;;5.10;;
28577;SDS011;15769;52.248;15.818;2022-11-12T02:07:56;8.40;;;4.75;;
28577;SDS011;15769;52.248;15.818;2022-11-12T02:13:18;10.27;;;5.38;;
28577;SDS011;15769;52.248;15.818;2022-11-12T02:18:58;7.10;;;4.72;;
28577;SDS011;15769;52.248;15.818;2022-11-12T02:29:46;8.70;;;5.15;;
28577;SDS011;15769;52.248;15.818;2022-11-12T02:35:08;12.38;;;5.90;;
28577;SDS011;15769;52.248;15.818;2022-11-12T02:40:29;10.32;;;5.18;;
28577;SDS011;15769;52.248;15.818;2022-11-12T02:45:50;11.18;;;5.20;;
28577;SDS011;15769;52.248;15.818;2022-11-12T02:51:11;8.20;;;5.05;;
28577;SDS011;15769;52.248;15.818;2022-11-12T02:56:50;9.95;;;5.20;;
28577;SDS011;15769;52.248;15.818;2022-11-12T03:02:12;8.40;;;5.10;;
28577;SDS011;15769;52.248;15.818;2022-11-12T03:07:33;8.50;;;5.30;;
28577;SDS011;15769;52.248;15.818;2022-11-12T03:12:55;10.30;;;5.68;;
28577;SDS011;15769;52.248;15.818;2022-11-12T03:18:22;9.27;;;5.97;;
28577;SDS011;15769;52.248;15.818;2022-11-12T03:23:43;7.80;;;5.57;;
28577;SDS011;15769;52.248;15.818;2022-11-12T03:29:04;12.65;;;6.55;;
28577;SDS011;15769;52.248;15.818;2022-11-12T03:34:25;10.07;;;6.35;;
28577;SDS011;15769;52.248;15.818;2022-11-12T03:39:47;12.02;;;5.82;;
28577;SDS011;15769;52.248;15.818;2022-11-12T03:45:08;11.00;;;6.10;;
28577;SDS011;15769;52.248;15.818;2022-11-12T03:50:29;8.95;;;6.25;;
28577;SDS011;15769;52.248;15.818;2022-11-12T03:55:50;9.98;;;6.40;;
28577;SDS011;15769;52.248;15.818;2022-11-12T04:01:12;9.88;;;6.50;;
28577;SDS011;15769;52.248;15.818;2022-11-12T04:06:33;9.63;;;6.00;;
28577;SDS011;15769;52.248;15.818;2022-11-12T04:12:13;13.13;;;6.78;;
28577;SDS011;15769;52.248;15.818;2022-11-12T04:17:53;11.35;;;6.63;;
28577;SDS011;15769;52.248;15.818;2022-11-12T04:23:33;14.43;;;7.18;;
28577;SDS011;15769;52.248;15.818;2022-11-12T04:28:53;11.38;;;6.55;;
28577;SDS011;15769;52.248;15.818;2022-11-12T04:34:33;10.20;;;6.38;;
28577;SDS011;15769;52.248;15.818;2022-11-12T04:39:54;16.02;;;10.63;;
28577;SDS011;15769;52.248;15.818;2022-11-12T04:45:36;40.40;;;29.52;;
28577;SDS011;15769;52.248;15.818;2022-11-12T04:50:58;31.30;;;22.38;;
28577;SDS011;15769;52.248;15.818;2022-11-12T04:56:21;18.93;;;12.53;;
28577;SDS011;15769;52.248;15.818;2022-11-12T05:01:44;9.40;;;6.93;;
28577;SDS011;15769;52.248;15.818;2022-11-12T05:07:05;10.98;;;7.45;;
28577;SDS011;15769;52.248;15.818;2022-11-12T05:12:26;36.72;;;20.55;;
28577;SDS011;15769;52.248;15.818;2022-11-12T05:17:48;34.15;;;20.63;;
28577;SDS011;15769;52.248;15.818;2022-11-12T05:23:12;19.63;;;12.65;;
28577;SDS011;15769;52.248;15.818;2022-11-12T05:28:33;16.88;;;10.35;;
28577;SDS011;15769;52.248;15.818;2022-11-12T05:33:54;17.70;;;10.48;;
28577;SDS011;15769;52.248;15.818;2022-11-12T05:39:15;20.33;;;13.60;;
28577;SDS011;15769;52.248;15.818;2022-11-12T05:44:36;15.70;;;9.85;;
28577;SDS011;15769;52.248;15.818;2022-11-12T05:49:57;10.55;;;7.30;;
28577;SDS011;15769;52.248;15.818;2022-11-12T05:55:18;14.15;;;9.20;;
28577;SDS011;15769;52.248;15.818;2022-11-12T06:00:40;11.98;;;8.98;;
28577;SDS011;15769;52.248;15.818;2022-11-12T06:06:01;23.58;;;12.68;;
28577;SDS011;15769;52.248;15.818;2022-11-12T06:11:22;20.92;;;11.73;;
28577;SDS011;15769;52.248;15.818;2022-11-12T06:16:43;19.27;;;9.93;;
28577;SDS011;15769;52.248;15.818;2022-11-12T06:22:04;15.77;;;9.20;;
28577;SDS011;15769;52.248;15.818;2022-11-12T06:27:25;13.15;;;8.07;;
28577;SDS011;15769;52.248;15.818;2022-11-12T06:32:49;14.37;;;9.23;;
28577;SDS011;15769;52.248;15.818;2022-11-12T06:38:10;13.25;;;8.50;;
28577;SDS011;15769;52.248;15.818;2022-11-12T06:43:32;12.07;;;8.45;;
28577;SDS011;15769;52.248;15.818;2022-11-12T06:48:54;38.50;;;20.55;;
28577;SDS011;15769;52.248;15.818;2022-11-12T06:54:14;30.02;;;17.55;;
28577;SDS011;15769;52.248;15.818;2022-11-12T06:59:35;15.00;;;9.27;;
28577;SDS011;15769;52.248;15.818;2022-11-12T07:04:56;14.45;;;8.55;;
28577;SDS011;15769;52.248;15.818;2022-11-12T07:10:17;12.50;;;7.90;;
28577;SDS011;15769;52.248;15.818;2022-11-12T07:15:39;16.05;;;9.60;;
28577;SDS011;15769;52.248;15.818;2022-11-12T07:21:01;15.32;;;7.85;;
28577;SDS011;15769;52.248;15.818;2022-11-12T07:26:30;12.32;;;8.50;;
28577;SDS011;15769;52.248;15.818;2022-11-12T07:31:51;11.80;;;7.90;;
28577;SDS011;15769;52.248;15.818;2022-11-12T07:37:13;25.40;;;18.60;;
28577;SDS011;15769;52.248;15.818;2022-11-12T07:42:34;20.88;;;14.95;;
28577;SDS011;15769;52.248;15.818;2022-11-12T07:47:59;17.58;;;12.02;;
28577;SDS011;15769;52.248;15.818;2022-11-12T07:53:21;17.85;;;11.63;;
28577;SDS011;15769;52.248;15.818;2022-11-12T07:58:43;28.48;;;14.75;;
28577;SDS011;15769;52.248;15.818;2022-11-12T08:04:06;38.63;;;16.80;;
28577;SDS011;15769;52.248;15.818;2022-11-12T08:14:50;59.85;;;21.67;;
28577;SDS011;15769;52.248;15.818;2022-11-12T08:20:11;41.15;;;16.67;;
28577;SDS011;15769;52.248;15.818;2022-11-12T08:25:33;31.02;;;14.35;;
28577;SDS011;15769;52.248;15.818;2022-11-12T08:30:54;41.92;;;16.13;;
28577;SDS011;15769;52.248;15.818;2022-11-12T08:36:17;39.05;;;15.18;;
28577;SDS011;15769;52.248;15.818;2022-11-12T08:41:38;27.70;;;12.48;;
28577;SDS011;15769;52.248;15.818;2022-11-12T08:46:59;19.52;;;9.82;;
28577;SDS011;15769;52.248;15.818;2022-11-12T08:52:24;24.27;;;11.38;;
28577;SDS011;15769;52.248;15.818;2022-11-12T08:57:47;19.60;;;11.88;;
28577;SDS011;15769;52.248;15.818;2022-11-12T09:03:15;27.30;;;12.27;;
28577;SDS011;15769;52.248;15.818;2022-11-12T09:08:42;23.60;;;12.10;;
28577;SDS011;15769;52.248;15.818;2022-11-12T09:14:12;19.75;;;9.73;;
28577;SDS011;15769;52.248;15.818;2022-11-12T09:19:46;18.90;;;9.70;;
28577;SDS011;15769;52.248;15.818;2022-11-12T09:25:07;37.13;;;26.13;;
28577;SDS011;15769;52.248;15.818;2022-11-12T09:30:29;34.03;;;25.77;;
28577;SDS011;15769;52.248;15.818;2022-11-12T09:36:02;20.63;;;14.83;;
28577;SDS011;15769;52.248;15.818;2022-11-12T09:41:31;19.38;;;12.38;;
28577;SDS011;15769;52.248;15.818;2022-11-12T09:47:01;20.73;;;12.48;;
28577;SDS011;15769;52.248;15.818;2022-11-12T09:53:26;18.30;;;10.32;;
28577;SDS011;15769;52.248;15.818;2022-11-12T09:59:12;20.40;;;10.15;;
28577;SDS011;15769;52.248;15.818;2022-11-12T10:04:54;18.50;;;12.77;;
28577;SDS011;15769;52.248;15.818;2022-11-12T10:22:19;22.02;;;13.13;;
28577;SDS011;15769;52.248;15.818;2022-11-12T10:27:47;23.05;;;15.70;;
28577;SDS011;15769;52.248;15.818;2022-11-12T10:33:12;16.48;;;10.65;;
28577;SDS011;15769;52.248;15.818;2022-11-12T10:38:34;20.75;;;10.88;;
28577;SDS011;15769;52.248;15.818;2022-11-12T10:43:59;14.57;;;10.00;;
28577;SDS011;15769;52.248;15.818;2022-11-12T12:46:45;26.13;;;16.70;;
28577;SDS011;15769;52.248;15.818;2022-11-12T12:58:28;27.00;;;14.45;;
28577;SDS011;15769;52.248;15.818;2022-11-12T13:04:12;40.35;;;18.60;;
28577;SDS011;15769;52.248;15.818;2022-11-12T13:23:09;26.27;;;14.73;;
28577;SDS011;15769;52.248;15.818;2022-11-12T13:33:57;16.58;;;10.32;;
28577;SDS011;15769;52.248;15.818;2022-11-12T13:39:52;21.27;;;11.55;;
28577;SDS011;15769;52.248;15.818;2022-11-12T13:45:16;23.00;;;17.43;;
28577;SDS011;15769;52.248;15.818;2022-11-12T13:50:39;23.77;;;15.93;;
28577;SDS011;15769;52.248;15.818;2022-11-12T13:56:01;18.55;;;11.77;;
28577;SDS011;15769;52.248;15.818;2022-11-12T14:01:23;14.63;;;9.55;;
28577;SDS011;15769;52.248;15.818;2022-11-12T14:06:48;12.80;;;7.90;;
28577;SDS011;15769;52.248;15.818;2022-11-12T14:17:51;15.48;;;9.88;;
28577;SDS011;15769;52.248;15.818;2022-11-12T14:23:39;13.80;;;9.32;;
28577;SDS011;15769;52.248;15.818;2022-11-12T14:29:02;34.00;;;24.43;;
28577;SDS011;15769;52.248;15.818;2022-11-12T14:34:30;24.92;;;17.42;;
28577;SDS011;15769;52.248;15.818;2022-11-12T14:39:53;27.45;;;17.25;;
28577;SDS011;15769;52.248;15.818;2022-11-12T14:45:15;31.42;;;19.05;;
28577;SDS011;15769;52.248;15.818;2022-11-12T14:51:02;31.52;;;19.35;;
28577;SDS011;15769;52.248;15.818;2022-11-12T14:56:39;38.47;;;23.88;;
28577;SDS011;15769;52.248;15.818;2022-11-12T15:02:47;48.13;;;32.90;;
28577;SDS011;15769;52.248;15.818;2022-11-12T15:09:07;35.13;;;23.67;;
28577;SDS011;15769;52.248;15.818;2022-11-12T15:15:09;41.70;;;25.85;;
28577;SDS011;15769;52.248;15.818;2022-11-12T15:20:44;71.53;;;34.40;;
28577;SDS011;15769;52.248;15.818;2022-11-12T15:26:22;80.37;;;42.37;;
28577;SDS011;15769;52.248;15.818;2022-11-12T15:32:35;95.57;;;49.17;;
28577;SDS011;15769;52.248;15.818;2022-11-12T15:38:56;87.00;;;46.70;;
28577;SDS011;15769;52.248;15.818;2022-11-12T15:45:28;80.95;;;37.75;;
28577;SDS011;15769;52.248;15.818;2022-11-12T15:51:11;85.88;;;34.22;;
28577;SDS011;15769;52.248;15.818;2022-11-12T15:56:35;79.60;;;34.25;;
28577;SDS011;15769;52.248;15.818;2022-11-12T16:01:58;46.47;;;20.45;;
28577;SDS011;15769;52.248;15.818;2022-11-12T16:07:18;27.25;;;14.23;;
28577;SDS011;15769;52.248;15.818;2022-11-12T16:12:41;42.92;;;24.88;;
28577;SDS011;15769;52.248;15.818;2022-11-12T16:18:02;40.80;;;20.17;;
28577;SDS011;15769;52.248;15.818;2022-11-12T16:23:23;48.83;;;25.45;;
28577;SDS011;15769;52.248;15.818;2022-11-12T16:28:45;32.55;;;18.45;;
28577;SDS011;15769;52.248;15.818;2022-11-12T16:34:11;27.15;;;17.02;;
28577;SDS011;15769;52.248;15.818;2022-11-12T16:39:32;30.98;;;19.63;;
28577;SDS011;15769;52.248;15.818;2022-11-12T16:44:53;38.25;;;22.75;;
28577;SDS011;15769;52.248;15.818;2022-11-12T16:50:15;48.88;;;29.38;;
28577;SDS011;15769;52.248;15.818;2022-11-12T16:55:38;62.08;;;36.63;;
28577;SDS011;15769;52.248;15.818;2022-11-12T17:01:00;50.10;;;28.67;;
28577;SDS011;15769;52.248;15.818;2022-11-12T17:06:23;44.40;;;24.33;;
28577;SDS011;15769;52.248;15.818;2022-11-12T17:11:51;53.95;;;28.73;;
28577;SDS011;15769;52.248;15.818;2022-11-12T17:17:12;45.80;;;26.33;;
28577;SDS011;15769;52.248;15.818;2022-11-12T17:22:33;45.28;;;25.48;;
28577;SDS011;15769;52.248;15.818;2022-11-12T17:27:55;42.30;;;23.77;;
28577;SDS011;15769;52.248;15.818;2022-11-12T17:33:16;47.30;;;26.27;;
28577;SDS011;15769;52.248;15.818;2022-11-12T17:38:37;41.35;;;20.13;;
28577;SDS011;15769;52.248;15.818;2022-11-12T17:43:58;30.02;;;18.42;;
28577;SDS011;15769;52.248;15.818;2022-11-12T17:49:20;38.47;;;22.38;;
28577;SDS011;15769;52.248;15.818;2022-11-12T17:54:41;53.88;;;26.73;;
28577;SDS011;15769;52.248;15.818;2022-11-12T18:00:02;57.05;;;27.02;;
28577;SDS011;15769;52.248;15.818;2022-11-12T18:05:26;44.75;;;22.25;;
28577;SDS011;15769;52.248;15.818;2022-11-12T18:10:54;48.90;;;25.83;;
28577;SDS011;15769;52.248;15.818;2022-11-12T18:16:23;51.25;;;29.65;;
28577;SDS011;15769;52.248;15.818;2022-11-12T18:21:56;43.53;;;25.08;;
28577;SDS011;15769;52.248;15.818;2022-11-12T18:27:18;54.30;;;27.30;;
28577;SDS011;15769;52.248;15.818;2022-11-12T18:32:43;67.75;;;33.40;;
28577;SDS011;15769;52.248;15.818;2022-11-12T18:38:12;42.15;;;23.40;;
28577;SDS011;15769;52.248;15.818;2022-11-12T18:43:36;48.30;;;25.02;;
28577;SDS011;15769;52.248;15.818;2022-11-12T18:54:41;77.82;;;38.42;;
28577;SDS011;15769;52.248;15.818;2022-11-12T19:00:02;84.13;;;39.85;;
28577;SDS011;15769;52.248;15.818;2022-11-12T19:05:24;146.10;;;60.20;;
28577;SDS011;15769;52.248;15.818;2022-11-12T19:10:45;118.30;;;50.85;;
28577;SDS011;15769;52.248;15.818;2022-11-12T19:16:07;129.75;;;53.45;;
28577;SDS011;15769;52.248;15.818;2022-11-12T19:21:33;160.02;;;69.05;;
28577;SDS011;15769;52.248;15.818;2022-11-12T19:26:58;148.30;;;65.50;;
28577;SDS011;15769;52.248;15.818;2022-11-12T19:32:20;90.45;;;48.78;;
28577;SDS011;15769;52.248;15.818;2022-11-12T19:37:43;65.55;;;35.10;;
28577;SDS011;15769;52.248;15.818;2022-11-12T19:43:04;51.60;;;30.65;;
28577;SDS011;15769;52.248;15.818;2022-11-12T19:48:26;58.40;;;33.67;;
28577;SDS011;15769;52.248;15.818;2022-11-12T19:53:48;54.47;;;32.42;;
28577;SDS011;15769;52.248;15.818;2022-11-12T19:59:13;54.67;;;31.67;;
28577;SDS011;15769;52.248;15.818;2022-11-12T20:04:37;59.13;;;31.52;;
28577;SDS011;15769;52.248;15.818;2022-11-12T20:09:58;97.10;;;55.83;;
28577;SDS011;15769;52.248;15.818;2022-11-12T20:15:20;89.88;;;48.53;;
28577;SDS011;15769;52.248;15.818;2022-11-12T20:20:49;76.22;;;43.17;;
28577;SDS011;15769;52.248;15.818;2022-11-12T20:26:13;78.85;;;43.95;;
28577;SDS011;15769;52.248;15.818;2022-11-12T20:31:35;123.80;;;60.37;;
28577;SDS011;15769;52.248;15.818;2022-11-12T20:36:57;89.10;;;45.35;;
28577;SDS011;15769;52.248;15.818;2022-11-12T20:42:19;133.68;;;71.50;;
28577;SDS011;15769;52.248;15.818;2022-11-12T20:47:40;127.88;;;66.90;;
28577;SDS011;15769;52.248;15.818;2022-11-12T20:53:02;101.75;;;52.70;;
28577;SDS011;15769;52.248;15.818;2022-11-12T20:58:23;127.20;;;65.25;;
28577;SDS011;15769;52.248;15.818;2022-11-12T21:03:44;124.88;;;63.90;;
28577;SDS011;15769;52.248;15.818;2022-11-12T21:09:06;144.30;;;75.75;;
28577;SDS011;15769;52.248;15.818;2022-11-12T21:14:27;127.38;;;60.72;;
28577;SDS011;15769;52.248;15.818;2022-11-12T21:19:48;83.78;;;41.70;;
28577;SDS011;15769;52.248;15.818;2022-11-12T21:25:12;75.38;;;37.85;;
28577;SDS011;15769;52.248;15.818;2022-11-12T21:30:39;80.03;;;38.92;;
28577;SDS011;15769;52.248;15.818;2022-11-12T21:36:14;62.50;;;34.58;;
28577;SDS011;15769;52.248;15.818;2022-11-12T21:41:36;60.95;;;33.08;;
28577;SDS011;15769;52.248;15.818;2022-11-12T21:46:57;85.22;;;43.65;;
28577;SDS011;15769;52.248;15.818;2022-11-12T21:52:18;72.28;;;36.42;;
28577;SDS011;15769;52.248;15.818;2022-11-12T21:57:40;77.50;;;39.45;;
28577;SDS011;15769;52.248;15.818;2022-11-12T22:03:01;94.43;;;43.30;;
28577;SDS011;15769;52.248;15.818;2022-11-12T22:08:22;99.93;;;47.72;;
28577;SDS011;15769;52.248;15.818;2022-11-12T22:13:43;81.13;;;38.08;;
28577;SDS011;15769;52.248;15.818;2022-11-12T22:19:04;75.40;;;35.03;;
28577;SDS011;15769;52.248;15.818;2022-11-12T22:24:26;80.45;;;38.08;;
28577;SDS011;15769;52.248;15.818;2022-11-12T22:29:47;78.95;;;39.22;;
28577;SDS011;15769;52.248;15.818;2022-11-12T22:35:08;87.38;;;42.88;;
28577;SDS011;15769;52.248;15.818;2022-11-12T22:40:31;86.10;;;41.17;;
28577;SDS011;15769;52.248;15.818;2022-11-12T22:45:52;84.25;;;42.00;;
28577;SDS011;15769;52.248;15.818;2022-11-12T22:51:15;94.05;;;44.63;;
28577;SDS011;15769;52.248;15.818;2022-11-12T22:56:41;91.03;;;46.13;;
28577;SDS011;15769;52.248;15.818;2022-11-12T23:02:03;74.85;;;41.03;;
28577;SDS011;15769;52.248;15.818;2022-11-12T23:07:27;65.32;;;34.50;;
28577;SDS011;15769;52.248;15.818;2022-11-12T23:12:48;47.08;;;26.58;;
28577;SDS011;15769;52.248;15.818;2022-11-12T23:18:10;42.78;;;24.27;;
28577;SDS011;15769;52.248;15.818;2022-11-12T23:23:31;41.95;;;24.50;;
28577;SDS011;15769;52.248;15.818;2022-11-12T23:28:53;56.97;;;31.98;;
28577;SDS011;15769;52.248;15.818;2022-11-12T23:34:15;42.63;;;24.88;;
28577;SDS011;15769;52.248;15.818;2022-11-12T23:39:37;34.03;;;22.15;;
28577;SDS011;15769;52.248;15.818;2022-11-12T23:44:59;36.20;;;21.08;;
28577;SDS011;15769;52.248;15.818;2022-11-12T23:50:20;31.33;;;19.95;;
28577;SDS011;15769;52.248;15.818;2022-11-12T23:55:42;35.80;;;21.70;;
